createdAt,value
2022-09-29T00:02:20.127Z,5.90
2022-09-29T00:05:23.223Z,5.15
2022-09-29T00:08:30.880Z,6.10
2022-09-29T00:11:33.637Z,7.03
2022-09-29T00:14:36.364Z,8.10
2022-09-29T00:17:38.993Z,6.57
2022-09-29T00:20:41.995Z,5.82
2022-09-29T00:23:44.670Z,5.90
2022-09-29T00:26:47.709Z,5.00
2022-09-29T00:29:50.442Z,6.03
2022-09-29T00:32:53.065Z,6.07
2022-09-29T00:36:01.343Z,5.32
2022-09-29T00:39:04.221Z,6.93
2022-09-29T00:42:06.950Z,6.63
2022-09-29T00:45:24.400Z,5.32
2022-09-29T00:48:32.734Z,4.85
2022-09-29T00:51:38.165Z,5.35
2022-09-29T00:54:53.202Z,5.40
2022-09-29T00:57:58.703Z,4.73
2022-09-29T01:01:01.736Z,5.85
2022-09-29T01:04:09.654Z,5.05
2022-09-29T01:07:13.565Z,6.50
2022-09-29T01:10:17.707Z,6.57
2022-09-29T01:13:22.395Z,5.57
2022-09-29T01:16:25.221Z,4.93
2022-09-29T01:19:45.123Z,4.18
2022-09-29T01:23:31.031Z,5.55
2022-09-29T01:26:42.854Z,4.85
2022-09-29T01:30:17.248Z,5.90
2022-09-29T01:33:50.654Z,5.00
2022-09-29T01:37:21.353Z,6.30
2022-09-29T01:40:37.172Z,5.30
2022-09-29T01:44:02.396Z,5.10
2022-09-29T01:47:12.341Z,5.80
2022-09-29T01:50:23.049Z,4.50
2022-09-29T01:53:33.957Z,4.97
2022-09-29T01:56:47.021Z,5.18
2022-09-29T01:59:55.558Z,6.05
2022-09-29T02:03:13.329Z,5.73
2022-09-29T02:06:22.579Z,5.18
2022-09-29T02:09:30.627Z,4.40
2022-09-29T02:12:36.600Z,4.72
2022-09-29T02:15:45.403Z,5.13
2022-09-29T02:19:05.113Z,6.10
2022-09-29T02:22:08.013Z,6.07
2022-09-29T02:25:15.328Z,5.70
2022-09-29T02:28:19.395Z,7.03
2022-09-29T02:31:22.210Z,4.53
2022-09-29T02:34:25.255Z,4.90
2022-09-29T02:38:06.709Z,6.63
2022-09-29T02:41:41.355Z,5.20
2022-09-29T02:44:52.852Z,5.45
2022-09-29T02:48:13.535Z,4.70
2022-09-29T02:51:30.739Z,7.43
2022-09-29T02:54:49.878Z,4.95
2022-09-29T02:58:15.674Z,5.57
2022-09-29T03:01:18.334Z,5.03
2022-09-29T03:04:23.605Z,5.53
2022-09-29T03:07:26.334Z,5.20
2022-09-29T03:10:30.343Z,6.57
2022-09-29T03:13:33.195Z,4.07
2022-09-29T03:16:37.193Z,7.28
2022-09-29T03:19:39.962Z,5.22
2022-09-29T03:22:42.972Z,5.27
2022-09-29T03:25:45.798Z,4.32
2022-09-29T03:28:48.534Z,4.95
2022-09-29T03:31:51.257Z,5.28
2022-09-29T03:34:54.022Z,4.82
2022-09-29T03:38:00.655Z,5.10
2022-09-29T03:41:03.903Z,4.85
2022-09-29T03:44:06.649Z,5.13
2022-09-29T03:47:09.746Z,4.40
2022-09-29T03:50:13.395Z,3.75
2022-09-29T03:53:17.719Z,4.73
2022-09-29T03:56:20.434Z,4.72
2022-09-29T03:59:23.331Z,7.15
2022-09-29T04:02:26.176Z,5.35
2022-09-29T04:05:30.003Z,4.93
2022-09-29T04:08:32.667Z,5.17
2022-09-29T04:11:35.520Z,4.95
2022-09-29T04:14:38.160Z,5.32
2022-09-29T04:17:40.769Z,6.60
2022-09-29T04:20:43.458Z,9.95
2022-09-29T04:23:47.044Z,7.03
2022-09-29T04:26:49.682Z,8.73
2022-09-29T04:29:52.358Z,7.72
2022-09-29T04:32:55.109Z,7.72
2022-09-29T04:35:58.900Z,7.00
2022-09-29T04:39:01.548Z,7.73
2022-09-29T04:42:04.535Z,7.20
2022-09-29T04:45:12.435Z,5.80
2022-09-29T04:48:15.215Z,6.32
2022-09-29T04:51:27.070Z,9.13
2022-09-29T04:54:37.496Z,7.07
2022-09-29T04:57:43.373Z,6.53
2022-09-29T05:00:46.337Z,8.15
2022-09-29T05:03:49.032Z,7.53
2022-09-29T05:06:51.848Z,7.47
2022-09-29T05:09:55.060Z,8.97
2022-09-29T05:12:58.027Z,7.35
2022-09-29T05:16:01.325Z,8.15
2022-09-29T05:19:04.645Z,7.75
2022-09-29T05:22:07.434Z,7.60
2022-09-29T05:25:10.279Z,9.37
2022-09-29T05:28:15.213Z,9.30
2022-09-29T05:31:19.136Z,8.73
2022-09-29T05:34:22.286Z,10.45
2022-09-29T05:37:24.992Z,11.15
2022-09-29T05:40:27.743Z,8.83
2022-09-29T05:43:34.199Z,11.85
2022-09-29T05:46:37.370Z,14.30
2022-09-29T05:49:45.531Z,10.30
2022-09-29T05:52:50.546Z,9.10
2022-09-29T05:55:53.918Z,10.90
2022-09-29T05:58:57.074Z,10.90
2022-09-29T06:01:59.852Z,12.02
2022-09-29T06:05:03.414Z,11.40
2022-09-29T06:08:07.391Z,12.00
2022-09-29T06:11:20.211Z,12.43
2022-09-29T06:14:23.264Z,14.27
2022-09-29T06:17:26.163Z,10.88
